sensor_id;sensor_type;location;lat;lon;timestamp;P1;durP1;ratioP1;P2;durP2;ratioP2
72728;SDS011;60843;52.062;4.508;2024-03-02T00:01:39;1.13;;;0.30;;
72728;SDS011;60843;52.062;4.508;2024-03-02T00:06:33;1.35;;;0.30;;
72728;SDS011;60843;52.062;4.508;2024-03-02T00:09:05;0.20;;;0.20;;
72728;SDS011;60843;52.062;4.508;2024-03-02T00:11:37;0.25;;;0.20;;
72728;SDS011;60843;52.062;4.508;2024-03-02T00:14:13;0.52;;;0.30;;
72728;SDS011;60843;52.062;4.508;2024-03-02T00:20:04;0.40;;;0.40;;
72728;SDS011;60843;52.062;4.508;2024-03-02T00:22:35;0.80;;;0.30;;
72728;SDS011;60843;52.062;4.508;2024-03-02T00:25:02;0.60;;;0.60;;
72728;SDS011;60843;52.062;4.508;2024-03-02T00:27:29;0.52;;;0.35;;
72728;SDS011;60843;52.062;4.508;2024-03-02T00:29:54;0.57;;;0.50;;
72728;SDS011;60843;52.062;4.508;2024-03-02T00:32:20;1.77;;;0.45;;
72728;SDS011;60843;52.062;4.508;2024-03-02T00:34:46;0.75;;;0.45;;
72728;SDS011;60843;52.062;4.508;2024-03-02T00:37:12;0.70;;;0.40;;
72728;SDS011;60843;52.062;4.508;2024-03-02T00:39:37;0.45;;;0.32;;
72728;SDS011;60843;52.062;4.508;2024-03-02T00:42:03;0.45;;;0.40;;
72728;SDS011;60843;52.062;4.508;2024-03-02T00:44:28;1.02;;;0.65;;
72728;SDS011;60843;52.062;4.508;2024-03-02T00:47:00;0.60;;;0.52;;
72728;SDS011;60843;52.062;4.508;2024-03-02T00:49:46;0.77;;;0.20;;
72728;SDS011;60843;52.062;4.508;2024-03-02T00:52:12;4.07;;;0.40;;
72728;SDS011;60843;52.062;4.508;2024-03-02T00:54:38;1.00;;;0.40;;
72728;SDS011;60843;52.062;4.508;2024-03-02T00:57:11;0.77;;;0.40;;
72728;SDS011;60843;52.062;4.508;2024-03-02T00:59:52;0.47;;;0.40;;
72728;SDS011;60843;52.062;4.508;2024-03-02T01:02:30;0.47;;;0.35;;
72728;SDS011;60843;52.062;4.508;2024-03-02T01:04:55;1.30;;;0.55;;
72728;SDS011;60843;52.062;4.508;2024-03-02T01:07:21;0.30;;;0.30;;
72728;SDS011;60843;52.062;4.508;2024-03-02T01:09:47;3.63;;;0.57;;
72728;SDS011;60843;52.062;4.508;2024-03-02T01:12:13;2.08;;;0.52;;
72728;SDS011;60843;52.062;4.508;2024-03-02T01:14:38;0.30;;;0.30;;
72728;SDS011;60843;52.062;4.508;2024-03-02T01:17:04;0.40;;;0.30;;
72728;SDS011;60843;52.062;4.508;2024-03-02T01:22:52;0.38;;;0.30;;
72728;SDS011;60843;52.062;4.508;2024-03-02T01:25:18;2.33;;;1.15;;
72728;SDS011;60843;52.062;4.508;2024-03-02T01:27:43;0.40;;;0.40;;
72728;SDS011;60843;52.062;4.508;2024-03-02T01:30:10;1.92;;;0.30;;
72728;SDS011;60843;52.062;4.508;2024-03-02T01:32:37;0.28;;;0.22;;
72728;SDS011;60843;52.062;4.508;2024-03-02T01:35:03;1.55;;;0.30;;
72728;SDS011;60843;52.062;4.508;2024-03-02T01:37:30;1.58;;;0.20;;
72728;SDS011;60843;52.062;4.508;2024-03-02T01:39:55;0.55;;;0.32;;
72728;SDS011;60843;52.062;4.508;2024-03-02T01:42:21;0.68;;;0.35;;
72728;SDS011;60843;52.062;4.508;2024-03-02T01:44:47;0.50;;;0.40;;
72728;SDS011;60843;52.062;4.508;2024-03-02T01:47:13;1.15;;;0.55;;
72728;SDS011;60843;52.062;4.508;2024-03-02T01:49:39;0.75;;;0.50;;
72728;SDS011;60843;52.062;4.508;2024-03-02T01:52:06;2.45;;;0.85;;
72728;SDS011;60843;52.062;4.508;2024-03-02T01:55:04;1.42;;;0.88;;
72728;SDS011;60843;52.062;4.508;2024-03-02T01:57:31;1.75;;;1.15;;
72728;SDS011;60843;52.062;4.508;2024-03-02T01:59:56;1.80;;;0.82;;
72728;SDS011;60843;52.062;4.508;2024-03-02T02:02:22;1.48;;;1.02;;
72728;SDS011;60843;52.062;4.508;2024-03-02T02:04:47;2.25;;;1.40;;
72728;SDS011;60843;52.062;4.508;2024-03-02T02:07:13;2.90;;;1.60;;
72728;SDS011;60843;52.062;4.508;2024-03-02T02:09:40;3.80;;;2.00;;
72728;SDS011;60843;52.062;4.508;2024-03-02T02:12:07;1.80;;;1.15;;
72728;SDS011;60843;52.062;4.508;2024-03-02T02:14:33;1.90;;;1.05;;
72728;SDS011;60843;52.062;4.508;2024-03-02T02:16:59;2.17;;;1.60;;
72728;SDS011;60843;52.062;4.508;2024-03-02T02:19:24;4.07;;;1.33;;
72728;SDS011;60843;52.062;4.508;2024-03-02T02:21:50;2.67;;;1.52;;
72728;SDS011;60843;52.062;4.508;2024-03-02T02:24:15;1.60;;;1.38;;
72728;SDS011;60843;52.062;4.508;2024-03-02T02:26:41;3.28;;;1.63;;
72728;SDS011;60843;52.062;4.508;2024-03-02T02:29:06;1.70;;;1.30;;
72728;SDS011;60843;52.062;4.508;2024-03-02T02:31:39;4.35;;;1.70;;
72728;SDS011;60843;52.062;4.508;2024-03-02T02:34:05;2.40;;;1.60;;
72728;SDS011;60843;52.062;4.508;2024-03-02T02:36:31;1.60;;;1.13;;
72728;SDS011;60843;52.062;4.508;2024-03-02T02:38:57;1.25;;;0.82;;
72728;SDS011;60843;52.062;4.508;2024-03-02T02:41:23;1.77;;;1.23;;
72728;SDS011;60843;52.062;4.508;2024-03-02T02:43:48;1.75;;;1.13;;
72728;SDS011;60843;52.062;4.508;2024-03-02T02:46:14;4.05;;;1.15;;
72728;SDS011;60843;52.062;4.508;2024-03-02T02:48:40;2.08;;;1.20;;
72728;SDS011;60843;52.062;4.508;2024-03-02T02:51:05;1.83;;;1.00;;
72728;SDS011;60843;52.062;4.508;2024-03-02T02:53:31;2.13;;;0.80;;
72728;SDS011;60843;52.062;4.508;2024-03-02T02:55:56;2.10;;;0.85;;
72728;SDS011;60843;52.062;4.508;2024-03-02T02:58:22;4.00;;;0.90;;
72728;SDS011;60843;52.062;4.508;2024-03-02T03:01:04;1.30;;;1.02;;
72728;SDS011;60843;52.062;4.508;2024-03-02T03:03:29;0.95;;;0.80;;
72728;SDS011;60843;52.062;4.508;2024-03-02T03:05:55;1.88;;;0.80;;
72728;SDS011;60843;52.062;4.508;2024-03-02T03:08:21;2.55;;;1.10;;
72728;SDS011;60843;52.062;4.508;2024-03-02T03:10:48;1.10;;;0.70;;
72728;SDS011;60843;52.062;4.508;2024-03-02T03:13:14;1.48;;;0.82;;
72728;SDS011;60843;52.062;4.508;2024-03-02T03:15:40;1.00;;;0.80;;
72728;SDS011;60843;52.062;4.508;2024-03-02T03:18:06;1.50;;;1.10;;
72728;SDS011;60843;52.062;4.508;2024-03-02T03:20:32;1.65;;;0.98;;
72728;SDS011;60843;52.062;4.508;2024-03-02T03:22:59;3.85;;;0.90;;
72728;SDS011;60843;52.062;4.508;2024-03-02T03:25:24;1.80;;;0.75;;
72728;SDS011;60843;52.062;4.508;2024-03-02T03:27:50;1.73;;;0.90;;
72728;SDS011;60843;52.062;4.508;2024-03-02T03:30:17;2.75;;;0.80;;
72728;SDS011;60843;52.062;4.508;2024-03-02T03:32:43;0.52;;;0.45;;
72728;SDS011;60843;52.062;4.508;2024-03-02T03:35:08;2.35;;;1.00;;
72728;SDS011;60843;52.062;4.508;2024-03-02T03:37:34;3.28;;;1.25;;
72728;SDS011;60843;52.062;4.508;2024-03-02T03:40:00;2.72;;;0.75;;
72728;SDS011;60843;52.062;4.508;2024-03-02T03:48:22;1.48;;;1.00;;
72728;SDS011;60843;52.062;4.508;2024-03-02T03:51:11;2.88;;;0.80;;
72728;SDS011;60843;52.062;4.508;2024-03-02T03:53:57;3.03;;;1.00;;
72728;SDS011;60843;52.062;4.508;2024-03-02T03:56:23;3.15;;;1.10;;
72728;SDS011;60843;52.062;4.508;2024-03-02T03:58:48;1.58;;;0.88;;
72728;SDS011;60843;52.062;4.508;2024-03-02T04:01:14;1.23;;;1.00;;
72728;SDS011;60843;52.062;4.508;2024-03-02T04:06:07;5.30;;;1.13;;
72728;SDS011;60843;52.062;4.508;2024-03-02T04:08:33;1.75;;;0.93;;
72728;SDS011;60843;52.062;4.508;2024-03-02T04:10:59;2.20;;;1.00;;
72728;SDS011;60843;52.062;4.508;2024-03-02T04:13:24;3.20;;;1.10;;
72728;SDS011;60843;52.062;4.508;2024-03-02T04:15:50;5.07;;;1.30;;
72728;SDS011;60843;52.062;4.508;2024-03-02T04:18:16;2.72;;;1.05;;
72728;SDS011;60843;52.062;4.508;2024-03-02T04:20:41;1.08;;;0.75;;
72728;SDS011;60843;52.062;4.508;2024-03-02T04:23:07;1.23;;;0.93;;
72728;SDS011;60843;52.062;4.508;2024-03-02T04:25:33;2.08;;;0.98;;
72728;SDS011;60843;52.062;4.508;2024-03-02T04:27:58;1.40;;;0.85;;
72728;SDS011;60843;52.062;4.508;2024-03-02T04:30:24;1.40;;;0.75;;
72728;SDS011;60843;52.062;4.508;2024-03-02T04:32:50;0.82;;;0.60;;
72728;SDS011;60843;52.062;4.508;2024-03-02T04:35:16;2.78;;;0.88;;
72728;SDS011;60843;52.062;4.508;2024-03-02T04:37:41;2.28;;;0.98;;
72728;SDS011;60843;52.062;4.508;2024-03-02T04:40:07;1.85;;;0.75;;
72728;SDS011;60843;52.062;4.508;2024-03-02T04:42:34;0.70;;;0.70;;
72728;SDS011;60843;52.062;4.508;2024-03-02T04:45:00;2.15;;;0.90;;
72728;SDS011;60843;52.062;4.508;2024-03-02T04:47:25;1.15;;;0.80;;
72728;SDS011;60843;52.062;4.508;2024-03-02T04:49:54;1.20;;;0.93;;
72728;SDS011;60843;52.062;4.508;2024-03-02T04:52:19;1.70;;;0.98;;
72728;SDS011;60843;52.062;4.508;2024-03-02T04:54:45;0.80;;;0.60;;
72728;SDS011;60843;52.062;4.508;2024-03-02T04:57:28;3.55;;;1.20;;
72728;SDS011;60843;52.062;4.508;2024-03-02T04:59:54;1.67;;;1.08;;
72728;SDS011;60843;52.062;4.508;2024-03-02T05:02:19;1.65;;;1.10;;
72728;SDS011;60843;52.062;4.508;2024-03-02T05:04:45;1.15;;;0.88;;
72728;SDS011;60843;52.062;4.508;2024-03-02T05:07:11;2.60;;;1.40;;
72728;SDS011;60843;52.062;4.508;2024-03-02T05:09:36;1.60;;;0.93;;
72728;SDS011;60843;52.062;4.508;2024-03-02T05:12:02;2.95;;;1.27;;
72728;SDS011;60843;52.062;4.508;2024-03-02T05:14:36;1.75;;;1.20;;
72728;SDS011;60843;52.062;4.508;2024-03-02T05:17:02;3.17;;;1.25;;
72728;SDS011;60843;52.062;4.508;2024-03-02T05:19:28;1.42;;;0.80;;
72728;SDS011;60843;52.062;4.508;2024-03-02T05:21:54;3.55;;;0.95;;
72728;SDS011;60843;52.062;4.508;2024-03-02T05:24:19;1.75;;;0.98;;
72728;SDS011;60843;52.062;4.508;2024-03-02T05:26:45;1.42;;;0.85;;
72728;SDS011;60843;52.062;4.508;2024-03-02T05:29:10;1.23;;;0.90;;
72728;SDS011;60843;52.062;4.508;2024-03-02T05:31:41;2.42;;;1.42;;
72728;SDS011;60843;52.062;4.508;2024-03-02T05:34:07;1.85;;;1.40;;
72728;SDS011;60843;52.062;4.508;2024-03-02T05:36:33;1.08;;;0.65;;
72728;SDS011;60843;52.062;4.508;2024-03-02T05:38:58;1.58;;;0.77;;
72728;SDS011;60843;52.062;4.508;2024-03-02T05:41:24;1.10;;;0.65;;
72728;SDS011;60843;52.062;4.508;2024-03-02T05:43:49;1.13;;;0.50;;
72728;SDS011;60843;52.062;4.508;2024-03-02T05:46:15;1.88;;;0.80;;
72728;SDS011;60843;52.062;4.508;2024-03-02T05:48:40;1.60;;;0.65;;
72728;SDS011;60843;52.062;4.508;2024-03-02T05:51:06;1.25;;;0.50;;
72728;SDS011;60843;52.062;4.508;2024-03-02T05:53:42;2.00;;;0.60;;
72728;SDS011;60843;52.062;4.508;2024-03-02T05:56:09;0.70;;;0.47;;
72728;SDS011;60843;52.062;4.508;2024-03-02T05:58:34;2.35;;;0.85;;
72728;SDS011;60843;52.062;4.508;2024-03-02T06:01:19;2.42;;;0.80;;
72728;SDS011;60843;52.062;4.508;2024-03-02T06:03:44;2.47;;;0.98;;
72728;SDS011;60843;52.062;4.508;2024-03-02T06:06:10;1.25;;;0.90;;
72728;SDS011;60843;52.062;4.508;2024-03-02T06:08:35;1.73;;;0.98;;
72728;SDS011;60843;52.062;4.508;2024-03-02T06:11:01;5.38;;;0.88;;
72728;SDS011;60843;52.062;4.508;2024-03-02T06:13:27;2.90;;;1.15;;
72728;SDS011;60843;52.062;4.508;2024-03-02T06:15:52;2.13;;;1.27;;
72728;SDS011;60843;52.062;4.508;2024-03-02T06:18:18;2.40;;;0.80;;
72728;SDS011;60843;52.062;4.508;2024-03-02T06:20:43;4.00;;;0.90;;
72728;SDS011;60843;52.062;4.508;2024-03-02T06:23:09;1.67;;;0.98;;
72728;SDS011;60843;52.062;4.508;2024-03-02T06:25:35;3.35;;;0.68;;
72728;SDS011;60843;52.062;4.508;2024-03-02T06:28:00;0.85;;;0.80;;
72728;SDS011;60843;52.062;4.508;2024-03-02T06:30:26;3.85;;;0.70;;
72728;SDS011;60843;52.062;4.508;2024-03-02T06:32:51;1.23;;;1.00;;
72728;SDS011;60843;52.062;4.508;2024-03-02T06:35:17;1.10;;;0.73;;
72728;SDS011;60843;52.062;4.508;2024-03-02T06:37:42;1.88;;;0.60;;
72728;SDS011;60843;52.062;4.508;2024-03-02T06:40:08;2.58;;;1.00;;
72728;SDS011;60843;52.062;4.508;2024-03-02T06:42:34;1.63;;;0.85;;
72728;SDS011;60843;52.062;4.508;2024-03-02T06:45:00;5.60;;;0.80;;
72728;SDS011;60843;52.062;4.508;2024-03-02T06:47:27;2.65;;;0.65;;
72728;SDS011;60843;52.062;4.508;2024-03-02T06:49:52;1.13;;;0.70;;
72728;SDS011;60843;52.062;4.508;2024-03-02T06:52:18;3.65;;;0.65;;
72728;SDS011;60843;52.062;4.508;2024-03-02T06:54:45;5.00;;;1.08;;
72728;SDS011;60843;52.062;4.508;2024-03-02T06:57:10;1.70;;;0.82;;
72728;SDS011;60843;52.062;4.508;2024-03-02T06:59:36;1.85;;;1.13;;
72728;SDS011;60843;52.062;4.508;2024-03-02T07:02:02;0.90;;;0.68;;
72728;SDS011;60843;52.062;4.508;2024-03-02T07:04:27;0.45;;;0.35;;
72728;SDS011;60843;52.062;4.508;2024-03-02T07:06:53;5.85;;;0.88;;
72728;SDS011;60843;52.062;4.508;2024-03-02T07:09:18;1.02;;;0.77;;
72728;SDS011;60843;52.062;4.508;2024-03-02T07:11:47;1.38;;;0.77;;
72728;SDS011;60843;52.062;4.508;2024-03-02T07:14:13;1.20;;;0.52;;
72728;SDS011;60843;52.062;4.508;2024-03-02T07:16:38;1.30;;;0.63;;
72728;SDS011;60843;52.062;4.508;2024-03-02T07:19:05;2.13;;;0.60;;
72728;SDS011;60843;52.062;4.508;2024-03-02T07:24:52;1.60;;;0.47;;
72728;SDS011;60843;52.062;4.508;2024-03-02T07:27:17;3.83;;;0.70;;
72728;SDS011;60843;52.062;4.508;2024-03-02T07:29:43;0.63;;;0.60;;
72728;SDS011;60843;52.062;4.508;2024-03-02T07:32:09;0.98;;;0.50;;
72728;SDS011;60843;52.062;4.508;2024-03-02T07:34:35;2.33;;;0.70;;
72728;SDS011;60843;52.062;4.508;2024-03-02T07:37:01;3.00;;;0.68;;
72728;SDS011;60843;52.062;4.508;2024-03-02T07:39:27;1.40;;;0.93;;
72728;SDS011;60843;52.062;4.508;2024-03-02T07:41:54;1.42;;;0.50;;
72728;SDS011;60843;52.062;4.508;2024-03-02T07:44:20;0.88;;;0.57;;
72728;SDS011;60843;52.062;4.508;2024-03-02T07:46:46;2.47;;;0.50;;
72728;SDS011;60843;52.062;4.508;2024-03-02T07:49:12;1.33;;;0.60;;
72728;SDS011;60843;52.062;4.508;2024-03-02T07:51:41;1.13;;;0.60;;
72728;SDS011;60843;52.062;4.508;2024-03-02T07:54:06;3.55;;;1.10;;
72728;SDS011;60843;52.062;4.508;2024-03-02T07:56:32;2.20;;;0.68;;
72728;SDS011;60843;52.062;4.508;2024-03-02T07:58:58;0.80;;;0.50;;
72728;SDS011;60843;52.062;4.508;2024-03-02T08:01:29;1.65;;;0.98;;
72728;SDS011;60843;52.062;4.508;2024-03-02T08:03:55;1.35;;;0.77;;
72728;SDS011;60843;52.062;4.508;2024-03-02T08:06:25;1.40;;;0.75;;
72728;SDS011;60843;52.062;4.508;2024-03-02T08:08:55;3.03;;;1.05;;
72728;SDS011;60843;52.062;4.508;2024-03-02T08:11:24;4.28;;;0.55;;
72728;SDS011;60843;52.062;4.508;2024-03-02T08:13:50;0.50;;;0.50;;
72728;SDS011;60843;52.062;4.508;2024-03-02T08:16:16;1.77;;;0.40;;
72728;SDS011;60843;52.062;4.508;2024-03-02T08:18:45;1.73;;;0.52;;
72728;SDS011;60843;52.062;4.508;2024-03-02T08:21:11;0.95;;;0.70;;
72728;SDS011;60843;52.062;4.508;2024-03-02T08:23:37;1.42;;;0.52;;
72728;SDS011;60843;52.062;4.508;2024-03-02T08:26:03;6.95;;;0.82;;
72728;SDS011;60843;52.062;4.508;2024-03-02T08:28:29;3.33;;;0.63;;
72728;SDS011;60843;52.062;4.508;2024-03-02T08:30:55;2.03;;;0.40;;
72728;SDS011;60843;52.062;4.508;2024-03-02T08:33:20;2.05;;;0.52;;
72728;SDS011;60843;52.062;4.508;2024-03-02T08:35:45;3.42;;;0.63;;
72728;SDS011;60843;52.062;4.508;2024-03-02T08:38:11;2.83;;;0.68;;
72728;SDS011;60843;52.062;4.508;2024-03-02T08:40:38;2.25;;;0.70;;
72728;SDS011;60843;52.062;4.508;2024-03-02T08:43:03;1.15;;;0.70;;
72728;SDS011;60843;52.062;4.508;2024-03-02T08:45:30;0.85;;;0.40;;
72728;SDS011;60843;52.062;4.508;2024-03-02T08:47:55;2.78;;;0.75;;
72728;SDS011;60843;52.062;4.508;2024-03-02T08:50:24;2.08;;;0.70;;
72728;SDS011;60843;52.062;4.508;2024-03-02T08:52:49;1.73;;;0.55;;
72728;SDS011;60843;52.062;4.508;2024-03-02T08:55:15;2.17;;;0.68;;
72728;SDS011;60843;52.062;4.508;2024-03-02T08:57:41;2.10;;;0.73;;
72728;SDS011;60843;52.062;4.508;2024-03-02T09:00:07;4.07;;;0.60;;
72728;SDS011;60843;52.062;4.508;2024-03-02T09:02:33;3.28;;;1.13;;
72728;SDS011;60843;52.062;4.508;2024-03-02T09:04:59;1.25;;;0.80;;
72728;SDS011;60843;52.062;4.508;2024-03-02T09:07:25;3.22;;;0.70;;
72728;SDS011;60843;52.062;4.508;2024-03-02T09:09:50;2.35;;;0.73;;
72728;SDS011;60843;52.062;4.508;2024-03-02T09:12:16;4.10;;;0.57;;
72728;SDS011;60843;52.062;4.508;2024-03-02T09:14:41;1.58;;;0.60;;
72728;SDS011;60843;52.062;4.508;2024-03-02T09:17:06;3.28;;;0.80;;
72728;SDS011;60843;52.062;4.508;2024-03-02T09:19:34;3.42;;;0.70;;
72728;SDS011;60843;52.062;4.508;2024-03-02T09:22:00;1.95;;;0.82;;
72728;SDS011;60843;52.062;4.508;2024-03-02T09:24:28;3.35;;;0.80;;
72728;SDS011;60843;52.062;4.508;2024-03-02T09:26:53;3.80;;;0.60;;
72728;SDS011;60843;52.062;4.508;2024-03-02T09:29:19;1.40;;;0.50;;
72728;SDS011;60843;52.062;4.508;2024-03-02T09:31:45;2.00;;;0.47;;
72728;SDS011;60843;52.062;4.508;2024-03-02T09:34:12;3.53;;;0.60;;
72728;SDS011;60843;52.062;4.508;2024-03-02T09:36:39;3.42;;;0.77;;
72728;SDS011;60843;52.062;4.508;2024-03-02T09:39:04;1.85;;;0.95;;
72728;SDS011;60843;52.062;4.508;2024-03-02T09:41:30;3.42;;;0.70;;
72728;SDS011;60843;52.062;4.508;2024-03-02T09:43:56;3.80;;;0.73;;
72728;SDS011;60843;52.062;4.508;2024-03-02T09:46:22;4.20;;;0.52;;
72728;SDS011;60843;52.062;4.508;2024-03-02T09:48:48;0.88;;;0.25;;
72728;SDS011;60843;52.062;4.508;2024-03-02T09:51:13;2.90;;;0.88;;
72728;SDS011;60843;52.062;4.508;2024-03-02T09:53:39;5.00;;;1.05;;
72728;SDS011;60843;52.062;4.508;2024-03-02T09:56:05;2.83;;;0.60;;
72728;SDS011;60843;52.062;4.508;2024-03-02T09:58:30;3.40;;;0.60;;
72728;SDS011;60843;52.062;4.508;2024-03-02T10:00:59;1.02;;;0.30;;
72728;SDS011;60843;52.062;4.508;2024-03-02T10:03:25;2.95;;;0.85;;
72728;SDS011;60843;52.062;4.508;2024-03-02T10:05:52;0.65;;;0.40;;
72728;SDS011;60843;52.062;4.508;2024-03-02T10:08:17;1.88;;;0.47;;
72728;SDS011;60843;52.062;4.508;2024-03-02T10:10:43;1.13;;;0.50;;
72728;SDS011;60843;52.062;4.508;2024-03-02T10:13:09;4.22;;;0.60;;
72728;SDS011;60843;52.062;4.508;2024-03-02T10:15:36;1.10;;;0.47;;
72728;SDS011;60843;52.062;4.508;2024-03-02T10:18:03;0.38;;;0.30;;
72728;SDS011;60843;52.062;4.508;2024-03-02T10:20:29;3.50;;;0.88;;
72728;SDS011;60843;52.062;4.508;2024-03-02T10:22:55;1.77;;;0.60;;
72728;SDS011;60843;52.062;4.508;2024-03-02T10:25:28;3.53;;;0.80;;
72728;SDS011;60843;52.062;4.508;2024-03-02T10:27:56;0.60;;;0.32;;
72728;SDS011;60843;52.062;4.508;2024-03-02T10:30:23;2.38;;;0.73;;
72728;SDS011;60843;52.062;4.508;2024-03-02T10:32:49;2.67;;;0.75;;
72728;SDS011;60843;52.062;4.508;2024-03-02T10:35:15;2.88;;;1.05;;
72728;SDS011;60843;52.062;4.508;2024-03-02T10:37:41;4.28;;;0.77;;
72728;SDS011;60843;52.062;4.508;2024-03-02T10:40:07;1.58;;;0.40;;
72728;SDS011;60843;52.062;4.508;2024-03-02T10:42:36;2.33;;;0.73;;
72728;SDS011;60843;52.062;4.508;2024-03-02T10:45:03;0.68;;;0.40;;
72728;SDS011;60843;52.062;4.508;2024-03-02T10:47:31;3.00;;;0.65;;
72728;SDS011;60843;52.062;4.508;2024-03-02T10:49:57;2.53;;;0.90;;
72728;SDS011;60843;52.062;4.508;2024-03-02T10:52:24;3.53;;;0.70;;
72728;SDS011;60843;52.062;4.508;2024-03-02T10:54:50;3.65;;;0.70;;
72728;SDS011;60843;52.062;4.508;2024-03-02T10:57:15;1.83;;;0.60;;
72728;SDS011;60843;52.062;4.508;2024-03-02T10:59:57;3.13;;;0.50;;
72728;SDS011;60843;52.062;4.508;2024-03-02T11:02:27;5.63;;;0.60;;
72728;SDS011;60843;52.062;4.508;2024-03-02T11:04:54;1.58;;;0.50;;
72728;SDS011;60843;52.062;4.508;2024-03-02T11:07:21;5.85;;;0.88;;
72728;SDS011;60843;52.062;4.508;2024-03-02T11:09:54;1.58;;;0.55;;
72728;SDS011;60843;52.062;4.508;2024-03-02T11:15:15;2.03;;;0.60;;
72728;SDS011;60843;52.062;4.508;2024-03-02T11:17:49;6.65;;;1.20;;
72728;SDS011;60843;52.062;4.508;2024-03-02T11:20:16;3.60;;;0.68;;
72728;SDS011;60843;52.062;4.508;2024-03-02T11:22:44;2.20;;;0.52;;
72728;SDS011;60843;52.062;4.508;2024-03-02T11:28:08;2.15;;;0.60;;
72728;SDS011;60843;52.062;4.508;2024-03-02T11:33:01;2.35;;;0.47;;
72728;SDS011;60843;52.062;4.508;2024-03-02T11:35:44;1.35;;;0.60;;
72728;SDS011;60843;52.062;4.508;2024-03-02T11:38:13;13.25;;;0.88;;
72728;SDS011;60843;52.062;4.508;2024-03-02T11:40:39;1.92;;;0.82;;
72728;SDS011;60843;52.062;4.508;2024-03-02T11:43:05;4.22;;;0.85;;
72728;SDS011;60843;52.062;4.508;2024-03-02T11:45:33;1.17;;;0.40;;
72728;SDS011;60843;52.062;4.508;2024-03-02T11:47:59;4.13;;;0.80;;
72728;SDS011;60843;52.062;4.508;2024-03-02T11:50:34;2.22;;;0.63;;
72728;SDS011;60843;52.062;4.508;2024-03-02T11:53:07;1.85;;;0.35;;
72728;SDS011;60843;52.062;4.508;2024-03-02T11:55:37;2.53;;;0.35;;
72728;SDS011;60843;52.062;4.508;2024-03-02T11:58:03;6.30;;;1.27;;
72728;SDS011;60843;52.062;4.508;2024-03-02T12:00:29;1.85;;;0.30;;
72728;SDS011;60843;52.062;4.508;2024-03-02T12:03:02;5.18;;;0.57;;
72728;SDS011;60843;52.062;4.508;2024-03-02T12:05:29;1.65;;;0.80;;
72728;SDS011;60843;52.062;4.508;2024-03-02T12:08:07;3.65;;;0.77;;
72728;SDS011;60843;52.062;4.508;2024-03-02T12:10:34;1.45;;;0.43;;
72728;SDS011;60843;52.062;4.508;2024-03-02T12:13:00;1.25;;;0.50;;
72728;SDS011;60843;52.062;4.508;2024-03-02T12:15:36;3.35;;;0.55;;
72728;SDS011;60843;52.062;4.508;2024-03-02T12:18:02;2.55;;;0.50;;
72728;SDS011;60843;52.062;4.508;2024-03-02T12:20:31;5.78;;;0.90;;
72728;SDS011;60843;52.062;4.508;2024-03-02T12:22:59;4.85;;;0.50;;
72728;SDS011;60843;52.062;4.508;2024-03-02T12:25:25;5.50;;;0.50;;
72728;SDS011;60843;52.062;4.508;2024-03-02T12:27:52;6.53;;;0.60;;
72728;SDS011;60843;52.062;4.508;2024-03-02T12:30:23;2.58;;;0.52;;
72728;SDS011;60843;52.062;4.508;2024-03-02T12:33:05;5.93;;;0.73;;
72728;SDS011;60843;52.062;4.508;2024-03-02T12:35:30;2.08;;;0.40;;
72728;SDS011;60843;52.062;4.508;2024-03-02T12:37:56;2.67;;;0.88;;
72728;SDS011;60843;52.062;4.508;2024-03-02T12:40:22;2.25;;;0.47;;
72728;SDS011;60843;52.062;4.508;2024-03-02T12:42:47;2.85;;;0.35;;
72728;SDS011;60843;52.062;4.508;2024-03-02T12:45:14;2.10;;;0.35;;
72728;SDS011;60843;52.062;4.508;2024-03-02T12:47:40;2.08;;;0.52;;
72728;SDS011;60843;52.062;4.508;2024-03-02T12:50:06;3.92;;;0.65;;
72728;SDS011;60843;52.062;4.508;2024-03-02T12:52:32;2.40;;;0.50;;
72728;SDS011;60843;52.062;4.508;2024-03-02T12:54:59;0.98;;;0.50;;
72728;SDS011;60843;52.062;4.508;2024-03-02T12:57:25;1.70;;;0.47;;
72728;SDS011;60843;52.062;4.508;2024-03-02T12:59:58;5.68;;;0.50;;
72728;SDS011;60843;52.062;4.508;2024-03-02T13:02:34;2.97;;;0.65;;
72728;SDS011;60843;52.062;4.508;2024-03-02T13:05:00;2.25;;;0.43;;
72728;SDS011;60843;52.062;4.508;2024-03-02T13:07:26;3.08;;;0.68;;
72728;SDS011;60843;52.062;4.508;2024-03-02T13:09:52;2.05;;;0.50;;
72728;SDS011;60843;52.062;4.508;2024-03-02T13:12:20;1.90;;;0.90;;
72728;SDS011;60843;52.062;4.508;2024-03-02T13:14:52;2.97;;;0.55;;
72728;SDS011;60843;52.062;4.508;2024-03-02T13:17:18;7.25;;;0.57;;
72728;SDS011;60843;52.062;4.508;2024-03-02T13:19:54;2.30;;;0.50;;
72728;SDS011;60843;52.062;4.508;2024-03-02T13:22:21;2.65;;;0.55;;
72728;SDS011;60843;52.062;4.508;2024-03-02T13:24:47;2.50;;;0.35;;
72728;SDS011;60843;52.062;4.508;2024-03-02T13:27:13;3.78;;;0.55;;
72728;SDS011;60843;52.062;4.508;2024-03-02T13:29:41;2.85;;;0.40;;
72728;SDS011;60843;52.062;4.508;2024-03-02T13:32:07;0.40;;;0.30;;
72728;SDS011;60843;52.062;4.508;2024-03-02T13:34:34;2.63;;;0.52;;
72728;SDS011;60843;52.062;4.508;2024-03-02T13:37:01;1.35;;;0.60;;
72728;SDS011;60843;52.062;4.508;2024-03-02T13:39:27;2.03;;;0.50;;
72728;SDS011;60843;52.062;4.508;2024-03-02T13:41:55;4.43;;;0.80;;
72728;SDS011;60843;52.062;4.508;2024-03-02T13:44:30;2.97;;;0.52;;
72728;SDS011;60843;52.062;4.508;2024-03-02T13:47:09;1.27;;;0.60;;
72728;SDS011;60843;52.062;4.508;2024-03-02T13:49:35;1.65;;;0.60;;
72728;SDS011;60843;52.062;4.508;2024-03-02T13:55:04;3.55;;;0.55;;
72728;SDS011;60843;52.062;4.508;2024-03-02T13:57:30;3.10;;;0.50;;
72728;SDS011;60843;52.062;4.508;2024-03-02T13:59:59;2.35;;;0.57;;
72728;SDS011;60843;52.062;4.508;2024-03-02T14:02:24;2.58;;;0.50;;
72728;SDS011;60843;52.062;4.508;2024-03-02T14:04:51;1.10;;;0.40;;
72728;SDS011;60843;52.062;4.508;2024-03-02T14:07:16;4.30;;;0.50;;
72728;SDS011;60843;52.062;4.508;2024-03-02T14:09:42;3.03;;;0.82;;
72728;SDS011;60843;52.062;4.508;2024-03-02T14:15:30;9.23;;;0.52;;
72728;SDS011;60843;52.062;4.508;2024-03-02T14:17:56;0.95;;;0.30;;
72728;SDS011;60843;52.062;4.508;2024-03-02T14:20:21;2.17;;;0.70;;
72728;SDS011;60843;52.062;4.508;2024-03-02T14:22:51;1.90;;;0.70;;
72728;SDS011;60843;52.062;4.508;2024-03-02T14:25:17;1.60;;;0.40;;
72728;SDS011;60843;52.062;4.508;2024-03-02T14:27:42;4.47;;;0.70;;
72728;SDS011;60843;52.062;4.508;2024-03-02T14:30:08;3.67;;;0.40;;
72728;SDS011;60843;52.062;4.508;2024-03-02T14:32:34;2.03;;;0.40;;
72728;SDS011;60843;52.062;4.508;2024-03-02T14:34:59;2.33;;;0.47;;
72728;SDS011;60843;52.062;4.508;2024-03-02T14:37:25;0.43;;;0.38;;
72728;SDS011;60843;52.062;4.508;2024-03-02T14:39:51;4.45;;;0.77;;
72728;SDS011;60843;52.062;4.508;2024-03-02T14:42:16;2.22;;;0.40;;
72728;SDS011;60843;52.062;4.508;2024-03-02T14:44:42;5.65;;;0.73;;
72728;SDS011;60843;52.062;4.508;2024-03-02T14:47:08;4.53;;;0.80;;
72728;SDS011;60843;52.062;4.508;2024-03-02T14:49:34;2.92;;;0.77;;
72728;SDS011;60843;52.062;4.508;2024-03-02T14:52:02;1.00;;;0.65;;
72728;SDS011;60843;52.062;4.508;2024-03-02T14:54:27;4.22;;;0.52;;
72728;SDS011;60843;52.062;4.508;2024-03-02T14:56:54;0.95;;;0.40;;
72728;SDS011;60843;52.062;4.508;2024-03-02T14:59:20;2.13;;;0.50;;
72728;SDS011;60843;52.062;4.508;2024-03-02T15:01:46;3.85;;;0.55;;
72728;SDS011;60843;52.062;4.508;2024-03-02T15:04:12;2.75;;;0.60;;
72728;SDS011;60843;52.062;4.508;2024-03-02T15:06:39;1.50;;;0.40;;
72728;SDS011;60843;52.062;4.508;2024-03-02T15:09:05;2.63;;;0.55;;
72728;SDS011;60843;52.062;4.508;2024-03-02T15:11:31;4.47;;;0.60;;
72728;SDS011;60843;52.062;4.508;2024-03-02T15:13:56;6.32;;;1.17;;
72728;SDS011;60843;52.062;4.508;2024-03-02T15:16:22;3.33;;;0.70;;
72728;SDS011;60843;52.062;4.508;2024-03-02T15:18:47;6.15;;;0.70;;
72728;SDS011;60843;52.062;4.508;2024-03-02T15:21:13;1.35;;;0.60;;
72728;SDS011;60843;52.062;4.508;2024-03-02T15:23:38;3.05;;;0.73;;